sensor_id;sensor_type;location;lat;lon;timestamp;temperature;humidity
52058;DHT22;38063;53.210;6.504;2023-03-23T00:01:24;9.80;99.90
52058;DHT22;38063;53.210;6.504;2023-03-23T00:03:53;9.80;99.90
52058;DHT22;38063;53.210;6.504;2023-03-23T00:06:23;9.80;99.90
52058;DHT22;38063;53.210;6.504;2023-03-23T00:08:51;9.90;99.90
52058;DHT22;38063;53.210;6.504;2023-03-23T00:11:23;9.90;99.90
52058;DHT22;38063;53.210;6.504;2023-03-23T00:13:52;9.90;99.90
52058;DHT22;38063;53.210;6.504;2023-03-23T00:16:23;10.10;99.90
52058;DHT22;38063;53.210;6.504;2023-03-23T00:19:02;9.90;99.90
52058;DHT22;38063;53.210;6.504;2023-03-23T00:21:35;9.90;99.90
52058;DHT22;38063;53.210;6.504;2023-03-23T00:24:07;10.10;99.90
52058;DHT22;38063;53.210;6.504;2023-03-23T00:26:38;9.80;99.90
52058;DHT22;38063;53.210;6.504;2023-03-23T00:29:25;9.80;99.90
52058;DHT22;38063;53.210;6.504;2023-03-23T00:31:52;9.80;99.90
52058;DHT22;38063;53.210;6.504;2023-03-23T00:34:20;9.80;99.90
52058;DHT22;38063;53.210;6.504;2023-03-23T00:36:54;9.70;99.90
52058;DHT22;38063;53.210;6.504;2023-03-23T00:39:22;9.80;99.90
52058;DHT22;38063;53.210;6.504;2023-03-23T00:41:49;9.70;99.90
52058;DHT22;38063;53.210;6.504;2023-03-23T00:44:15;9.90;99.90
52058;DHT22;38063;53.210;6.504;2023-03-23T00:46:47;9.80;99.90
52058;DHT22;38063;53.210;6.504;2023-03-23T00:49:17;9.80;99.90
52058;DHT22;38063;53.210;6.504;2023-03-23T00:51:43;9.80;99.90
52058;DHT22;38063;53.210;6.504;2023-03-23T00:54:09;9.80;99.90
52058;DHT22;38063;53.210;6.504;2023-03-23T00:56:36;9.80;99.90
52058;DHT22;38063;53.210;6.504;2023-03-23T00:59:02;9.90;99.90
52058;DHT22;38063;53.210;6.504;2023-03-23T01:01:28;10.00;99.90
52058;DHT22;38063;53.210;6.504;2023-03-23T01:03:53;10.00;99.90
52058;DHT22;38063;53.210;6.504;2023-03-23T01:06:29;10.00;99.90
52058;DHT22;38063;53.210;6.504;2023-03-23T01:08:56;10.00;99.90
52058;DHT22;38063;53.210;6.504;2023-03-23T01:11:22;10.00;99.90
52058;DHT22;38063;53.210;6.504;2023-03-23T01:13:48;10.00;99.90
52058;DHT22;38063;53.210;6.504;2023-03-23T01:16:14;10.00;99.90
52058;DHT22;38063;53.210;6.504;2023-03-23T01:18:40;10.00;99.90
52058;DHT22;38063;53.210;6.504;2023-03-23T01:21:11;9.90;99.90
52058;DHT22;38063;53.210;6.504;2023-03-23T01:23:38;9.90;99.90
52058;DHT22;38063;53.210;6.504;2023-03-23T01:26:09;9.80;99.90
52058;DHT22;38063;53.210;6.504;2023-03-23T01:28:35;9.80;99.90
52058;DHT22;38063;53.210;6.504;2023-03-23T01:31:10;9.80;99.90
52058;DHT22;38063;53.210;6.504;2023-03-23T01:33:38;9.80;99.90
52058;DHT22;38063;53.210;6.504;2023-03-23T01:36:12;9.70;99.90
52058;DHT22;38063;53.210;6.504;2023-03-23T01:38:38;9.80;99.90
52058;DHT22;38063;53.210;6.504;2023-03-23T01:41:04;9.90;99.90
52058;DHT22;38063;53.210;6.504;2023-03-23T01:43:31;9.80;99.90
52058;DHT22;38063;53.210;6.504;2023-03-23T01:45:57;9.90;99.90
52058;DHT22;38063;53.210;6.504;2023-03-23T01:48:34;9.90;99.90
52058;DHT22;38063;53.210;6.504;2023-03-23T01:51:06;10.00;99.90
52058;DHT22;38063;53.210;6.504;2023-03-23T01:53:37;10.00;99.90
52058;DHT22;38063;53.210;6.504;2023-03-23T01:56:04;10.10;99.90
52058;DHT22;38063;53.210;6.504;2023-03-23T01:58:33;10.10;99.90
52058;DHT22;38063;53.210;6.504;2023-03-23T02:01:03;10.10;99.90
52058;DHT22;38063;53.210;6.504;2023-03-23T02:03:30;10.60;99.90
52058;DHT22;38063;53.210;6.504;2023-03-23T02:05:57;10.20;99.90
52058;DHT22;38063;53.210;6.504;2023-03-23T02:08:29;10.20;99.90
52058;DHT22;38063;53.210;6.504;2023-03-23T02:10:56;10.20;99.90
52058;DHT22;38063;53.210;6.504;2023-03-23T02:13:22;10.20;99.90
52058;DHT22;38063;53.210;6.504;2023-03-23T02:24:57;10.30;99.90
52058;DHT22;38063;53.210;6.504;2023-03-23T02:35:43;10.40;99.90
52058;DHT22;38063;53.210;6.504;2023-03-23T02:38:15;10.40;99.90
52058;DHT22;38063;53.210;6.504;2023-03-23T02:40:45;10.50;99.90
52058;DHT22;38063;53.210;6.504;2023-03-23T02:43:18;10.50;99.90
52058;DHT22;38063;53.210;6.504;2023-03-23T02:45:45;10.40;99.90
52058;DHT22;38063;53.210;6.504;2023-03-23T02:48:14;10.40;99.90
52058;DHT22;38063;53.210;6.504;2023-03-23T02:50:44;10.40;99.90
52058;DHT22;38063;53.210;6.504;2023-03-23T02:53:12;10.50;99.90
52058;DHT22;38063;53.210;6.504;2023-03-23T02:55:41;10.40;99.90
52058;DHT22;38063;53.210;6.504;2023-03-23T02:58:11;10.50;99.90
52058;DHT22;38063;53.210;6.504;2023-03-23T03:00:38;10.50;99.90
52058;DHT22;38063;53.210;6.504;2023-03-23T03:03:05;10.50;99.90
52058;DHT22;38063;53.210;6.504;2023-03-23T03:05:40;10.50;99.90
52058;DHT22;38063;53.210;6.504;2023-03-23T03:08:33;10.50;99.90
52058;DHT22;38063;53.210;6.504;2023-03-23T03:11:18;10.50;99.90
52058;DHT22;38063;53.210;6.504;2023-03-23T03:14:10;10.50;99.90
52058;DHT22;38063;53.210;6.504;2023-03-23T03:17:00;10.50;99.90
52058;DHT22;38063;53.210;6.504;2023-03-23T03:19:38;10.50;99.90
52058;DHT22;38063;53.210;6.504;2023-03-23T03:22:06;10.60;99.90
52058;DHT22;38063;53.210;6.504;2023-03-23T03:24:33;10.50;99.90
52058;DHT22;38063;53.210;6.504;2023-03-23T03:27:01;10.40;99.90
52058;DHT22;38063;53.210;6.504;2023-03-23T03:29:32;10.40;99.90
52058;DHT22;38063;53.210;6.504;2023-03-23T03:32:01;10.40;99.90
52058;DHT22;38063;53.210;6.504;2023-03-23T03:34:27;10.40;99.90
52058;DHT22;38063;53.210;6.504;2023-03-23T03:36:55;10.40;99.90
52058;DHT22;38063;53.210;6.504;2023-03-23T03:39:23;10.50;99.90
52058;DHT22;38063;53.210;6.504;2023-03-23T03:41:49;10.50;99.90
52058;DHT22;38063;53.210;6.504;2023-03-23T03:44:15;10.50;99.90
52058;DHT22;38063;53.210;6.504;2023-03-23T03:46:41;10.40;99.90
52058;DHT22;38063;53.210;6.504;2023-03-23T03:49:09;10.50;99.90
52058;DHT22;38063;53.210;6.504;2023-03-23T03:51:36;10.50;99.90
52058;DHT22;38063;53.210;6.504;2023-03-23T03:54:02;10.80;99.90
52058;DHT22;38063;53.210;6.504;2023-03-23T03:56:28;10.40;99.90
52058;DHT22;38063;53.210;6.504;2023-03-23T03:58:53;10.40;99.90
52058;DHT22;38063;53.210;6.504;2023-03-23T04:01:21;10.40;99.90
52058;DHT22;38063;53.210;6.504;2023-03-23T04:03:48;10.40;99.90
52058;DHT22;38063;53.210;6.504;2023-03-23T04:06:14;10.30;99.90
52058;DHT22;38063;53.210;6.504;2023-03-23T04:08:40;10.30;99.90
52058;DHT22;38063;53.210;6.504;2023-03-23T04:11:09;10.30;99.90
52058;DHT22;38063;53.210;6.504;2023-03-23T04:13:35;10.30;99.90
52058;DHT22;38063;53.210;6.504;2023-03-23T04:16:01;10.30;99.90
52058;DHT22;38063;53.210;6.504;2023-03-23T04:18:27;10.20;99.90
52058;DHT22;38063;53.210;6.504;2023-03-23T04:20:54;10.10;99.90
52058;DHT22;38063;53.210;6.504;2023-03-23T04:23:25;10.00;99.90
52058;DHT22;38063;53.210;6.504;2023-03-23T04:25:52;9.90;99.90
52058;DHT22;38063;53.210;6.504;2023-03-23T04:28:22;9.90;99.90
52058;DHT22;38063;53.210;6.504;2023-03-23T04:30:50;9.90;99.90
52058;DHT22;38063;53.210;6.504;2023-03-23T04:33:19;9.80;99.90
52058;DHT22;38063;53.210;6.504;2023-03-23T04:35:45;9.80;99.90
52058;DHT22;38063;53.210;6.504;2023-03-23T04:38:15;9.80;99.90
52058;DHT22;38063;53.210;6.504;2023-03-23T04:40:42;9.80;99.90
52058;DHT22;38063;53.210;6.504;2023-03-23T04:43:09;9.80;99.90
52058;DHT22;38063;53.210;6.504;2023-03-23T04:45:37;10.00;99.90
52058;DHT22;38063;53.210;6.504;2023-03-23T04:48:07;9.80;99.90
52058;DHT22;38063;53.210;6.504;2023-03-23T04:50:34;9.80;99.90
52058;DHT22;38063;53.210;6.504;2023-03-23T04:53:02;9.80;99.90
52058;DHT22;38063;53.210;6.504;2023-03-23T04:55:34;9.80;99.90
52058;DHT22;38063;53.210;6.504;2023-03-23T04:58:05;9.80;99.90
52058;DHT22;38063;53.210;6.504;2023-03-23T05:00:35;9.70;99.90
52058;DHT22;38063;53.210;6.504;2023-03-23T05:03:01;9.80;99.90
52058;DHT22;38063;53.210;6.504;2023-03-23T05:05:28;9.70;99.90
52058;DHT22;38063;53.210;6.504;2023-03-23T05:07:56;9.70;99.90
52058;DHT22;38063;53.210;6.504;2023-03-23T05:10:22;9.70;99.90
52058;DHT22;38063;53.210;6.504;2023-03-23T05:12:48;9.70;99.90
52058;DHT22;38063;53.210;6.504;2023-03-23T05:15:14;9.70;99.90
52058;DHT22;38063;53.210;6.504;2023-03-23T05:17:41;9.80;99.90
52058;DHT22;38063;53.210;6.504;2023-03-23T05:20:18;9.70;99.90
52058;DHT22;38063;53.210;6.504;2023-03-23T05:22:46;9.80;99.90
52058;DHT22;38063;53.210;6.504;2023-03-23T05:25:15;9.80;99.90
52058;DHT22;38063;53.210;6.504;2023-03-23T05:27:44;9.80;99.90
52058;DHT22;38063;53.210;6.504;2023-03-23T05:30:14;9.90;99.90
52058;DHT22;38063;53.210;6.504;2023-03-23T05:32:42;9.90;99.90
52058;DHT22;38063;53.210;6.504;2023-03-23T05:35:10;9.90;99.90
52058;DHT22;38063;53.210;6.504;2023-03-23T05:37:37;9.80;99.90
52058;DHT22;38063;53.210;6.504;2023-03-23T05:40:03;9.90;99.90
52058;DHT22;38063;53.210;6.504;2023-03-23T05:42:33;9.90;99.90
52058;DHT22;38063;53.210;6.504;2023-03-23T05:45:03;9.90;99.90
52058;DHT22;38063;53.210;6.504;2023-03-23T05:47:29;10.00;99.90
52058;DHT22;38063;53.210;6.504;2023-03-23T05:49:56;10.00;99.90
52058;DHT22;38063;53.210;6.504;2023-03-23T05:52:22;10.10;99.90
52058;DHT22;38063;53.210;6.504;2023-03-23T05:54:50;9.90;99.90
52058;DHT22;38063;53.210;6.504;2023-03-23T05:57:16;9.90;99.90
52058;DHT22;38063;53.210;6.504;2023-03-23T05:59:42;9.90;99.90
52058;DHT22;38063;53.210;6.504;2023-03-23T06:02:08;9.90;99.90
52058;DHT22;38063;53.210;6.504;2023-03-23T06:04:35;9.90;99.90
52058;DHT22;38063;53.210;6.504;2023-03-23T06:07:03;9.90;99.90
52058;DHT22;38063;53.210;6.504;2023-03-23T06:09:29;9.80;99.90
52058;DHT22;38063;53.210;6.504;2023-03-23T06:11:55;9.90;99.90
52058;DHT22;38063;53.210;6.504;2023-03-23T06:14:20;9.90;99.90
52058;DHT22;38063;53.210;6.504;2023-03-23T06:16:46;9.90;99.90
52058;DHT22;38063;53.210;6.504;2023-03-23T06:19:12;9.90;99.90
52058;DHT22;38063;53.210;6.504;2023-03-23T06:21:38;9.90;99.90
52058;DHT22;38063;53.210;6.504;2023-03-23T06:24:04;9.90;99.90
52058;DHT22;38063;53.210;6.504;2023-03-23T06:26:38;9.90;99.90
52058;DHT22;38063;53.210;6.504;2023-03-23T06:29:06;9.90;99.90
52058;DHT22;38063;53.210;6.504;2023-03-23T06:31:41;9.90;99.90
52058;DHT22;38063;53.210;6.504;2023-03-23T06:34:08;10.00;99.90
52058;DHT22;38063;53.210;6.504;2023-03-23T06:36:35;10.00;99.90
52058;DHT22;38063;53.210;6.504;2023-03-23T06:39:02;10.00;99.90
52058;DHT22;38063;53.210;6.504;2023-03-23T06:41:30;10.00;99.90
52058;DHT22;38063;53.210;6.504;2023-03-23T06:43:56;10.20;99.90
52058;DHT22;38063;53.210;6.504;2023-03-23T06:46:22;9.90;99.90
52058;DHT22;38063;53.210;6.504;2023-03-23T06:48:48;9.80;99.90
52058;DHT22;38063;53.210;6.504;2023-03-23T06:51:16;9.70;99.90
52058;DHT22;38063;53.210;6.504;2023-03-23T06:53:42;9.60;99.90
52058;DHT22;38063;53.210;6.504;2023-03-23T06:56:08;9.50;99.90
52058;DHT22;38063;53.210;6.504;2023-03-23T06:58:34;9.40;99.90
52058;DHT22;38063;53.210;6.504;2023-03-23T07:01:01;9.40;99.90
52058;DHT22;38063;53.210;6.504;2023-03-23T07:03:27;9.40;99.90
52058;DHT22;38063;53.210;6.504;2023-03-23T07:05:53;9.40;99.90
52058;DHT22;38063;53.210;6.504;2023-03-23T07:08:20;9.40;99.90
52058;DHT22;38063;53.210;6.504;2023-03-23T07:10:47;9.40;99.90
52058;DHT22;38063;53.210;6.504;2023-03-23T07:13:12;9.40;99.90
52058;DHT22;38063;53.210;6.504;2023-03-23T07:15:39;9.40;99.90
52058;DHT22;38063;53.210;6.504;2023-03-23T07:18:05;9.40;99.90
52058;DHT22;38063;53.210;6.504;2023-03-23T07:20:31;9.50;99.90
52058;DHT22;38063;53.210;6.504;2023-03-23T07:22:57;9.50;99.90
52058;DHT22;38063;53.210;6.504;2023-03-23T07:25:22;9.50;99.90
52058;DHT22;38063;53.210;6.504;2023-03-23T07:27:48;9.90;99.90
52058;DHT22;38063;53.210;6.504;2023-03-23T07:30:14;9.60;99.90
52058;DHT22;38063;53.210;6.504;2023-03-23T07:32:40;9.60;99.90
52058;DHT22;38063;53.210;6.504;2023-03-23T07:35:08;9.60;99.90
52058;DHT22;38063;53.210;6.504;2023-03-23T07:37:34;9.70;99.90
52058;DHT22;38063;53.210;6.504;2023-03-23T07:40:01;9.80;99.90
52058;DHT22;38063;53.210;6.504;2023-03-23T07:42:40;9.90;99.90
52058;DHT22;38063;53.210;6.504;2023-03-23T07:45:07;9.90;99.90
52058;DHT22;38063;53.210;6.504;2023-03-23T07:47:32;10.00;99.90
52058;DHT22;38063;53.210;6.504;2023-03-23T07:49:58;10.10;99.90
52058;DHT22;38063;53.210;6.504;2023-03-23T07:52:24;10.20;99.90
52058;DHT22;38063;53.210;6.504;2023-03-23T07:54:49;10.20;99.90
52058;DHT22;38063;53.210;6.504;2023-03-23T07:57:15;10.20;99.90
52058;DHT22;38063;53.210;6.504;2023-03-23T07:59:41;10.30;99.90
52058;DHT22;38063;53.210;6.504;2023-03-23T08:02:08;10.30;99.90
52058;DHT22;38063;53.210;6.504;2023-03-23T08:04:35;10.40;99.90
52058;DHT22;38063;53.210;6.504;2023-03-23T08:07:03;10.40;99.90
52058;DHT22;38063;53.210;6.504;2023-03-23T08:09:30;10.40;99.90
52058;DHT22;38063;53.210;6.504;2023-03-23T08:11:56;10.50;99.90
52058;DHT22;38063;53.210;6.504;2023-03-23T08:14:22;10.50;99.90
52058;DHT22;38063;53.210;6.504;2023-03-23T08:16:48;10.50;99.90
52058;DHT22;38063;53.210;6.504;2023-03-23T08:19:14;10.50;99.90
52058;DHT22;38063;53.210;6.504;2023-03-23T08:21:40;10.50;99.90
52058;DHT22;38063;53.210;6.504;2023-03-23T08:24:06;10.60;99.90
52058;DHT22;38063;53.210;6.504;2023-03-23T08:26:32;10.60;99.90
52058;DHT22;38063;53.210;6.504;2023-03-23T08:28:57;10.60;99.90
52058;DHT22;38063;53.210;6.504;2023-03-23T08:31:23;10.70;99.90
52058;DHT22;38063;53.210;6.504;2023-03-23T08:33:50;10.70;99.90
52058;DHT22;38063;53.210;6.504;2023-03-23T08:36:15;10.70;99.90
52058;DHT22;38063;53.210;6.504;2023-03-23T08:38:41;10.60;99.90
52058;DHT22;38063;53.210;6.504;2023-03-23T08:41:09;10.70;99.90
52058;DHT22;38063;53.210;6.504;2023-03-23T08:43:35;10.70;99.90
52058;DHT22;38063;53.210;6.504;2023-03-23T08:46:01;10.80;99.90
52058;DHT22;38063;53.210;6.504;2023-03-23T08:48:32;10.90;99.90
52058;DHT22;38063;53.210;6.504;2023-03-23T08:50:59;10.90;99.90
52058;DHT22;38063;53.210;6.504;2023-03-23T08:53:26;10.90;99.90
52058;DHT22;38063;53.210;6.504;2023-03-23T08:55:55;11.00;99.90
52058;DHT22;38063;53.210;6.504;2023-03-23T08:58:21;11.00;99.90
52058;DHT22;38063;53.210;6.504;2023-03-23T09:00:48;11.30;99.90
52058;DHT22;38063;53.210;6.504;2023-03-23T09:03:14;11.10;99.90
52058;DHT22;38063;53.210;6.504;2023-03-23T09:05:40;11.30;99.90
52058;DHT22;38063;53.210;6.504;2023-03-23T09:08:11;11.40;99.90
52058;DHT22;38063;53.210;6.504;2023-03-23T09:10:38;11.40;99.90
52058;DHT22;38063;53.210;6.504;2023-03-23T09:13:04;11.50;99.90
52058;DHT22;38063;53.210;6.504;2023-03-23T09:15:32;11.40;99.90
52058;DHT22;38063;53.210;6.504;2023-03-23T09:17:58;11.50;99.90
52058;DHT22;38063;53.210;6.504;2023-03-23T09:20:26;11.50;99.90
52058;DHT22;38063;53.210;6.504;2023-03-23T09:22:54;11.70;99.90
52058;DHT22;38063;53.210;6.504;2023-03-23T09:25:22;11.70;99.90
52058;DHT22;38063;53.210;6.504;2023-03-23T09:27:53;11.70;99.90
52058;DHT22;38063;53.210;6.504;2023-03-23T09:30:26;11.70;99.90
52058;DHT22;38063;53.210;6.504;2023-03-23T09:32:52;11.60;99.90
52058;DHT22;38063;53.210;6.504;2023-03-23T09:35:18;11.50;99.90
52058;DHT22;38063;53.210;6.504;2023-03-23T09:37:47;11.40;99.90
52058;DHT22;38063;53.210;6.504;2023-03-23T09:40:16;11.40;99.90
52058;DHT22;38063;53.210;6.504;2023-03-23T09:51:22;11.60;99.90
52058;DHT22;38063;53.210;6.504;2023-03-23T09:53:54;11.60;99.90
52058;DHT22;38063;53.210;6.504;2023-03-23T09:56:21;11.80;99.90
52058;DHT22;38063;53.210;6.504;2023-03-23T10:02:16;12.50;99.90
52058;DHT22;38063;53.210;6.504;2023-03-23T10:04:50;12.80;99.90
52058;DHT22;38063;53.210;6.504;2023-03-23T10:07:22;13.00;99.90
52058;DHT22;38063;53.210;6.504;2023-03-23T10:09:54;13.20;99.90
52058;DHT22;38063;53.210;6.504;2023-03-23T10:15:23;13.50;99.90
52058;DHT22;38063;53.210;6.504;2023-03-23T10:17:56;13.60;99.90
52058;DHT22;38063;53.210;6.504;2023-03-23T10:26:08;14.00;99.90
52058;DHT22;38063;53.210;6.504;2023-03-23T10:28:39;13.80;99.90
52058;DHT22;38063;53.210;6.504;2023-03-23T10:31:11;13.50;99.90
52058;DHT22;38063;53.210;6.504;2023-03-23T10:33:48;13.20;99.90
52058;DHT22;38063;53.210;6.504;2023-03-23T10:41:37;12.60;99.90
52058;DHT22;38063;53.210;6.504;2023-03-23T10:44:20;12.50;99.90
52058;DHT22;38063;53.210;6.504;2023-03-23T10:46:58;12.30;99.90
52058;DHT22;38063;53.210;6.504;2023-03-23T10:49:33;12.50;99.90
52058;DHT22;38063;53.210;6.504;2023-03-23T10:52:11;12.60;99.90
52058;DHT22;38063;53.210;6.504;2023-03-23T10:54:48;12.70;99.90
52058;DHT22;38063;53.210;6.504;2023-03-23T10:57:26;12.70;99.90
52058;DHT22;38063;53.210;6.504;2023-03-23T11:00:05;12.60;99.90
52058;DHT22;38063;53.210;6.504;2023-03-23T11:02:39;12.50;99.90
52058;DHT22;38063;53.210;6.504;2023-03-23T11:05:18;12.50;99.90
52058;DHT22;38063;53.210;6.504;2023-03-23T11:07:50;12.40;99.90
52058;DHT22;38063;53.210;6.504;2023-03-23T11:10:25;12.40;99.90
52058;DHT22;38063;53.210;6.504;2023-03-23T11:12:52;12.50;99.90
52058;DHT22;38063;53.210;6.504;2023-03-23T11:15:33;12.50;99.90
52058;DHT22;38063;53.210;6.504;2023-03-23T11:18:05;12.80;99.90
52058;DHT22;38063;53.210;6.504;2023-03-23T11:20:42;13.20;99.90
52058;DHT22;38063;53.210;6.504;2023-03-23T11:23:27;13.50;99.90
52058;DHT22;38063;53.210;6.504;2023-03-23T11:28:19;14.20;99.90
52058;DHT22;38063;53.210;6.504;2023-03-23T11:30:45;14.20;99.90
52058;DHT22;38063;53.210;6.504;2023-03-23T11:33:12;14.20;99.90
52058;DHT22;38063;53.210;6.504;2023-03-23T11:35:44;14.20;99.90
52058;DHT22;38063;53.210;6.504;2023-03-23T11:38:19;14.30;99.90
52058;DHT22;38063;53.210;6.504;2023-03-23T11:40:50;14.20;99.90
52058;DHT22;38063;53.210;6.504;2023-03-23T11:43:22;14.50;99.90
52058;DHT22;38063;53.210;6.504;2023-03-23T11:48:40;14.90;99.90
52058;DHT22;38063;53.210;6.504;2023-03-23T11:54:06;14.70;99.90
52058;DHT22;38063;53.210;6.504;2023-03-23T11:56:37;14.60;99.90
52058;DHT22;38063;53.210;6.504;2023-03-23T11:59:12;14.60;99.90
52058;DHT22;38063;53.210;6.504;2023-03-23T12:07:46;15.30;99.90
52058;DHT22;38063;53.210;6.504;2023-03-23T12:10:38;15.50;99.90
52058;DHT22;38063;53.210;6.504;2023-03-23T12:16:18;15.70;99.90
52058;DHT22;38063;53.210;6.504;2023-03-23T12:21:52;15.70;99.90
52058;DHT22;38063;53.210;6.504;2023-03-23T12:24:43;15.70;99.90
52058;DHT22;38063;53.210;6.504;2023-03-23T12:38:08;15.10;99.90
52058;DHT22;38063;53.210;6.504;2023-03-23T12:43:42;14.90;99.90
52058;DHT22;38063;53.210;6.504;2023-03-23T12:48:52;15.00;99.90
52058;DHT22;38063;53.210;6.504;2023-03-23T12:51:35;14.90;99.90
52058;DHT22;38063;53.210;6.504;2023-03-23T12:54:12;14.70;99.90
52058;DHT22;38063;53.210;6.504;2023-03-23T12:59:42;14.20;99.90
52058;DHT22;38063;53.210;6.504;2023-03-23T13:02:30;14.00;99.90
52058;DHT22;38063;53.210;6.504;2023-03-23T13:07:49;13.90;99.90
52058;DHT22;38063;53.210;6.504;2023-03-23T13:10:26;13.90;99.90
52058;DHT22;38063;53.210;6.504;2023-03-23T13:12:53;13.90;99.90
52058;DHT22;38063;53.210;6.504;2023-03-23T13:15:43;13.80;99.90
52058;DHT22;38063;53.210;6.504;2023-03-23T13:21:09;13.80;99.90
52058;DHT22;38063;53.210;6.504;2023-03-23T13:23:50;13.80;99.90
52058;DHT22;38063;53.210;6.504;2023-03-23T13:26:20;13.80;99.90
52058;DHT22;38063;53.210;6.504;2023-03-23T13:33:52;13.90;99.90
52058;DHT22;38063;53.210;6.504;2023-03-23T13:37:11;13.90;99.90
52058;DHT22;38063;53.210;6.504;2023-03-23T13:39:27;13.90;99.90
52058;DHT22;38063;53.210;6.504;2023-03-23T13:44:42;13.70;99.90
52058;DHT22;38063;53.210;6.504;2023-03-23T13:50:08;13.70;99.90
52058;DHT22;38063;53.210;6.504;2023-03-23T13:52:53;13.70;99.90
52058;DHT22;38063;53.210;6.504;2023-03-23T13:55:39;13.80;99.90
52058;DHT22;38063;53.210;6.504;2023-03-23T14:05:41;14.20;99.90
52058;DHT22;38063;53.210;6.504;2023-03-23T14:08:12;14.30;99.90
52058;DHT22;38063;53.210;6.504;2023-03-23T14:10:43;14.40;99.90
52058;DHT22;38063;53.210;6.504;2023-03-23T14:13:42;14.30;99.90
52058;DHT22;38063;53.210;6.504;2023-03-23T14:18:51;14.40;99.90
52058;DHT22;38063;53.210;6.504;2023-03-23T14:21:31;14.50;99.90
52058;DHT22;38063;53.210;6.504;2023-03-23T14:24:00;14.40;99.90
52058;DHT22;38063;53.210;6.504;2023-03-23T14:26:26;14.30;99.90
52058;DHT22;38063;53.210;6.504;2023-03-23T14:28:53;14.10;99.90
52058;DHT22;38063;53.210;6.504;2023-03-23T14:31:25;14.10;99.90
52058;DHT22;38063;53.210;6.504;2023-03-23T14:33:54;14.10;99.90
52058;DHT22;38063;53.210;6.504;2023-03-23T14:36:26;14.20;99.90
52058;DHT22;38063;53.210;6.504;2023-03-23T14:39:06;14.30;99.90
52058;DHT22;38063;53.210;6.504;2023-03-23T14:41:34;14.30;99.90
52058;DHT22;38063;53.210;6.504;2023-03-23T14:44:02;14.30;99.90
52058;DHT22;38063;53.210;6.504;2023-03-23T14:46:30;14.50;99.90
52058;DHT22;38063;53.210;6.504;2023-03-23T14:49:03;14.70;99.90
52058;DHT22;38063;53.210;6.504;2023-03-23T14:51:29;14.80;99.90
52058;DHT22;38063;53.210;6.504;2023-03-23T14:53:58;14.80;99.90
52058;DHT22;38063;53.210;6.504;2023-03-23T14:56:33;14.90;99.90
52058;DHT22;38063;53.210;6.504;2023-03-23T14:59:04;14.90;99.90
52058;DHT22;38063;53.210;6.504;2023-03-23T15:01:32;14.70;99.90
52058;DHT22;38063;53.210;6.504;2023-03-23T15:06:37;14.70;99.90
52058;DHT22;38063;53.210;6.504;2023-03-23T15:09:13;14.80;99.90
52058;DHT22;38063;53.210;6.504;2023-03-23T15:11:40;14.80;99.90
52058;DHT22;38063;53.210;6.504;2023-03-23T15:14:15;14.70;99.90
52058;DHT22;38063;53.210;6.504;2023-03-23T15:16:47;14.70;99.90
52058;DHT22;38063;53.210;6.504;2023-03-23T15:19:37;14.70;99.90
52058;DHT22;38063;53.210;6.504;2023-03-23T15:25:00;14.70;99.90
52058;DHT22;38063;53.210;6.504;2023-03-23T15:27:33;14.70;99.90
52058;DHT22;38063;53.210;6.504;2023-03-23T15:32:47;14.60;99.90
52058;DHT22;38063;53.210;6.504;2023-03-23T15:35:17;14.60;99.90
52058;DHT22;38063;53.210;6.504;2023-03-23T15:37:49;14.50;99.90
52058;DHT22;38063;53.210;6.504;2023-03-23T15:40:21;14.40;99.90
52058;DHT22;38063;53.210;6.504;2023-03-23T15:42:48;14.40;99.90
52058;DHT22;38063;53.210;6.504;2023-03-23T15:50:13;14.30;99.90
52058;DHT22;38063;53.210;6.504;2023-03-23T15:52:40;14.20;99.90
52058;DHT22;38063;53.210;6.504;2023-03-23T15:55:36;14.20;99.90
52058;DHT22;38063;53.210;6.504;2023-03-23T15:58:12;14.10;99.90
52058;DHT22;38063;53.210;6.504;2023-03-23T16:00:38;14.00;99.90
52058;DHT22;38063;53.210;6.504;2023-03-23T16:03:07;13.90;99.90
52058;DHT22;38063;53.210;6.504;2023-03-23T16:05:34;13.80;99.90
52058;DHT22;38063;53.210;6.504;2023-03-23T16:08:00;13.70;99.90
52058;DHT22;38063;53.210;6.504;2023-03-23T16:10:27;13.70;99.90
52058;DHT22;38063;53.210;6.504;2023-03-23T16:12:53;13.60;99.90
52058;DHT22;38063;53.210;6.504;2023-03-23T16:15:19;13.60;99.90
52058;DHT22;38063;53.210;6.504;2023-03-23T16:17:44;13.60;99.90
52058;DHT22;38063;53.210;6.504;2023-03-23T16:20:22;13.50;99.90
52058;DHT22;38063;53.210;6.504;2023-03-23T16:22:49;13.40;99.90
52058;DHT22;38063;53.210;6.504;2023-03-23T16:25:15;13.30;99.90
52058;DHT22;38063;53.210;6.504;2023-03-23T16:27:42;13.30;99.90
52058;DHT22;38063;53.210;6.504;2023-03-23T16:30:19;13.30;99.90
52058;DHT22;38063;53.210;6.504;2023-03-23T16:32:45;13.30;99.90
52058;DHT22;38063;53.210;6.504;2023-03-23T16:35:12;13.20;99.90
52058;DHT22;38063;53.210;6.504;2023-03-23T16:37:42;13.30;99.90
52058;DHT22;38063;53.210;6.504;2023-03-23T16:40:11;13.30;99.90
52058;DHT22;38063;53.210;6.504;2023-03-23T16:42:37;13.20;99.90
52058;DHT22;38063;53.210;6.504;2023-03-23T16:45:03;13.20;99.90
52058;DHT22;38063;53.210;6.504;2023-03-23T16:47:28;13.10;99.90
52058;DHT22;38063;53.210;6.504;2023-03-23T16:49:54;13.10;99.90
52058;DHT22;38063;53.210;6.504;2023-03-23T16:52:20;13.00;99.90
52058;DHT22;38063;53.210;6.504;2023-03-23T16:54:46;13.00;99.90
52058;DHT22;38063;53.210;6.504;2023-03-23T16:57:12;12.90;99.90
52058;DHT22;38063;53.210;6.504;2023-03-23T16:59:37;12.90;99.90
52058;DHT22;38063;53.210;6.504;2023-03-23T17:02:03;12.80;99.90
52058;DHT22;38063;53.210;6.504;2023-03-23T17:04:30;12.80;99.90
52058;DHT22;38063;53.210;6.504;2023-03-23T17:06:56;12.80;99.90
52058;DHT22;38063;53.210;6.504;2023-03-23T17:09:24;12.70;99.90
52058;DHT22;38063;53.210;6.504;2023-03-23T17:11:51;12.70;99.90
52058;DHT22;38063;53.210;6.504;2023-03-23T17:14:17;12.60;99.90
52058;DHT22;38063;53.210;6.504;2023-03-23T17:16:42;12.60;99.90
52058;DHT22;38063;53.210;6.504;2023-03-23T17:19:08;12.60;99.90
52058;DHT22;38063;53.210;6.504;2023-03-23T17:21:33;12.60;99.90
52058;DHT22;38063;53.210;6.504;2023-03-23T17:24:00;12.50;99.90
52058;DHT22;38063;53.210;6.504;2023-03-23T17:26:26;12.40;99.90
52058;DHT22;38063;53.210;6.504;2023-03-23T17:28:52;12.40;99.90
52058;DHT22;38063;53.210;6.504;2023-03-23T17:31:17;12.40;99.90
52058;DHT22;38063;53.210;6.504;2023-03-23T17:33:43;12.30;99.90
52058;DHT22;38063;53.210;6.504;2023-03-23T17:36:09;12.40;99.90
52058;DHT22;38063;53.210;6.504;2023-03-23T17:38:34;12.30;99.90
52058;DHT22;38063;53.210;6.504;2023-03-23T17:41:01;12.20;99.90
52058;DHT22;38063;53.210;6.504;2023-03-23T17:43:28;12.20;99.90
52058;DHT22;38063;53.210;6.504;2023-03-23T17:45:54;12.20;99.90
52058;DHT22;38063;53.210;6.504;2023-03-23T17:48:20;12.10;99.90
52058;DHT22;38063;53.210;6.504;2023-03-23T17:50:47;12.10;99.90
52058;DHT22;38063;53.210;6.504;2023-03-23T17:53:13;12.00;99.90